KIWI

Wiscasset Airport

Wiscasset, Maine, USA
METAR KIWI 170553Z AUTO 00000KT 10SM CLR M10/M13 A3013 RMK AO2 SLP205 T11001133 11044 21100 51014
Observed Flight Rules
Dec-17 @ 05:53 UTC (28 minutes ago) Visual Flight Rules
Wind Visibility Clouds
Calm 10 miles
  • Clear skies
Temperatures Readings
Current -10°C / 14°F
Dewpoint -13°C / 9°F
Humidity 79%
Altimeter 30.13" Hg
Pressure 1020.5 hPa
Elevation 20
METAR KIWI 170553Z AUTO 00000KT 10SM CLR M10/M13 A3013 RMK AO2 SLP205 T11001133 11044 21100 51014
Observed Flight Rules
Dec-17 @ 05:53 UTC
(28 minutes ago)
VFR
Wind Visibility
Calm 10 miles
Clouds
  • Clear skies
Temperature Dewpoint
-10°C / 14°F -13°C / 9°F
Humidity Altimeter Pressure
79% 30.13" Hg 1020.5 hPa